createdAt,value
2017-07-03T00:01:06.037Z,8.70
2017-07-03T00:03:34.445Z,8.40
2017-07-03T00:06:01.974Z,8.23
2017-07-03T00:08:29.536Z,8.20
2017-07-03T00:10:57.057Z,10.60
2017-07-03T00:13:24.585Z,8.00
2017-07-03T00:15:52.143Z,8.37
2017-07-03T00:18:19.661Z,7.50
2017-07-03T00:20:47.184Z,8.37
2017-07-03T00:23:14.735Z,7.50
2017-07-03T00:25:42.264Z,8.00
2017-07-03T00:28:09.824Z,8.30
2017-07-03T00:30:37.343Z,8.03
2017-07-03T00:33:04.872Z,7.93
2017-07-03T00:35:33.206Z,7.10
2017-07-03T00:38:00.739Z,6.83
2017-07-03T00:40:28.276Z,6.60
2017-07-03T00:42:56.593Z,6.30
2017-07-03T00:45:24.116Z,5.90
2017-07-03T00:47:51.630Z,5.40
2017-07-03T00:50:19.189Z,4.13
2017-07-03T00:52:46.711Z,5.80
2017-07-03T00:55:14.255Z,5.30
2017-07-03T00:57:41.816Z,3.90
2017-07-03T01:00:09.341Z,4.10
2017-07-03T01:02:36.864Z,4.20
2017-07-03T01:05:04.432Z,3.87
2017-07-03T01:07:31.947Z,4.07
2017-07-03T01:09:59.456Z,4.67
2017-07-03T01:12:27.008Z,4.37
2017-07-03T01:17:26.680Z,4.40
2017-07-03T01:19:54.227Z,3.90
2017-07-03T01:24:58.377Z,3.33
2017-07-03T01:27:25.905Z,3.40
2017-07-03T01:29:54.237Z,3.60
2017-07-03T01:32:21.786Z,3.17
2017-07-03T01:34:49.308Z,3.13
2017-07-03T01:37:16.861Z,3.80
2017-07-03T01:39:45.184Z,3.40
2017-07-03T01:42:12.703Z,2.73
2017-07-03T01:44:40.236Z,2.77
2017-07-03T01:47:07.792Z,3.00
2017-07-03T01:49:35.328Z,3.27
2017-07-03T01:52:02.889Z,3.10
2017-07-03T01:54:30.400Z,3.30
2017-07-03T01:56:57.936Z,2.90
2017-07-03T01:59:26.280Z,3.60
2017-07-03T02:01:53.806Z,3.07
2017-07-03T02:04:21.345Z,3.47
2017-07-03T02:06:48.930Z,3.10
2017-07-03T02:09:16.456Z,3.07
2017-07-03T02:11:43.990Z,2.83
2017-07-03T02:14:12.332Z,2.67
2017-07-03T02:16:39.856Z,3.10
2017-07-03T02:19:07.403Z,2.67
2017-07-03T02:24:07.887Z,2.50
2017-07-03T02:26:35.447Z,2.20
2017-07-03T02:29:02.984Z,2.70
2017-07-03T02:31:30.572Z,2.13
2017-07-03T02:33:58.325Z,2.60
2017-07-03T02:36:25.856Z,2.30
2017-07-03T02:38:53.378Z,2.20
2017-07-03T02:41:21.724Z,2.83
2017-07-03T02:43:49.261Z,2.70
2017-07-03T02:46:16.776Z,2.60
2017-07-03T02:48:44.329Z,1.83
2017-07-03T02:51:11.868Z,2.10
2017-07-03T02:53:39.428Z,2.67
2017-07-03T02:56:06.997Z,2.10
2017-07-03T02:58:35.291Z,2.30
2017-07-03T03:01:02.803Z,2.47
2017-07-03T03:03:30.356Z,2.00
2017-07-03T03:05:57.876Z,2.47
2017-07-03T03:08:25.436Z,2.80
2017-07-03T03:10:52.969Z,2.13
2017-07-03T03:13:21.265Z,2.27
2017-07-03T03:15:48.829Z,2.77
2017-07-03T03:18:16.348Z,3.60
2017-07-03T03:20:43.865Z,2.70
2017-07-03T03:23:11.437Z,2.90
2017-07-03T03:25:38.962Z,3.40
2017-07-03T03:28:06.494Z,3.07
2017-07-03T03:30:34.813Z,3.10
2017-07-03T03:33:02.327Z,3.80
2017-07-03T03:35:29.897Z,3.40
2017-07-03T03:37:57.430Z,3.27
2017-07-03T03:40:24.957Z,3.20
2017-07-03T03:42:52.517Z,3.60
2017-07-03T03:45:20.037Z,3.43
2017-07-03T03:47:47.563Z,3.63
2017-07-03T03:50:15.901Z,4.47
2017-07-03T03:52:43.458Z,4.13
2017-07-03T03:55:11.026Z,3.93
2017-07-03T03:57:38.540Z,3.83
2017-07-03T04:00:06.101Z,4.50
2017-07-03T04:02:33.620Z,3.97
2017-07-03T04:05:01.172Z,5.00
2017-07-03T04:07:28.736Z,4.17
2017-07-03T04:09:56.260Z,6.13
2017-07-03T04:12:23.820Z,5.30
2017-07-03T04:14:51.348Z,5.50
2017-07-03T04:17:18.877Z,6.03
2017-07-03T04:19:46.436Z,5.17
2017-07-03T04:22:14.719Z,5.47
2017-07-03T04:24:42.240Z,5.03
2017-07-03T04:27:09.791Z,5.67
2017-07-03T04:29:37.380Z,5.20
2017-07-03T04:32:05.709Z,3.60
2017-07-03T04:34:33.260Z,5.53
2017-07-03T04:37:00.865Z,5.70
2017-07-03T04:39:28.429Z,6.83
2017-07-03T04:41:56.778Z,6.30
2017-07-03T04:44:24.340Z,6.63
2017-07-03T04:46:51.860Z,6.47
2017-07-03T04:49:19.430Z,7.30
2017-07-03T04:51:46.965Z,4.97
2017-07-03T04:54:14.537Z,6.67
2017-07-03T04:56:42.089Z,6.60
2017-07-03T04:59:09.624Z,6.10
2017-07-03T05:01:37.948Z,6.77
2017-07-03T05:04:05.489Z,6.90
2017-07-03T05:06:33.068Z,8.10
2017-07-03T05:09:00.604Z,7.17
2017-07-03T05:11:28.129Z,6.90
2017-07-03T05:13:55.709Z,6.90
2017-07-03T05:16:23.256Z,7.73
2017-07-03T05:18:50.796Z,7.80
2017-07-03T05:21:19.161Z,9.20
2017-07-03T05:23:47.489Z,7.90
2017-07-03T05:26:15.014Z,7.50
2017-07-03T05:28:42.612Z,7.27
2017-07-03T05:31:10.149Z,7.27
2017-07-03T05:33:37.703Z,8.13
2017-07-03T05:36:05.272Z,7.23
2017-07-03T05:38:32.799Z,6.70
2017-07-03T05:41:01.152Z,7.40
2017-07-03T05:43:34.345Z,8.43
2017-07-03T05:46:01.916Z,8.00
2017-07-03T05:48:30.212Z,8.40
2017-07-03T05:50:57.748Z,7.10
2017-07-03T05:53:25.319Z,7.90
2017-07-03T05:55:52.858Z,7.97
2017-07-03T05:58:21.188Z,8.10
2017-07-03T06:00:48.785Z,8.27
2017-07-03T06:03:16.330Z,7.40
2017-07-03T06:05:43.885Z,8.37
2017-07-03T06:08:11.479Z,8.50
2017-07-03T06:10:39.570Z,8.20
2017-07-03T06:13:07.137Z,8.73
2017-07-03T06:15:34.682Z,8.77
2017-07-03T06:18:02.217Z,6.97
2017-07-03T06:20:30.575Z,8.70
2017-07-03T06:22:58.107Z,8.10
2017-07-03T06:25:25.627Z,7.80
2017-07-03T06:27:53.973Z,6.37
2017-07-03T06:30:21.502Z,7.57
2017-07-03T06:32:49.071Z,8.13
2017-07-03T06:35:16.617Z,7.50
2017-07-03T06:37:44.146Z,8.07
2017-07-03T06:40:11.730Z,7.50
2017-07-03T06:42:39.264Z,6.93
2017-07-03T06:45:06.795Z,6.13
2017-07-03T06:47:35.108Z,6.37
2017-07-03T06:50:02.647Z,7.30
2017-07-03T06:52:30.190Z,6.70
2017-07-03T06:54:58.511Z,5.57
2017-07-03T06:57:26.036Z,6.83
2017-07-03T06:59:53.554Z,6.50
2017-07-03T07:02:21.130Z,6.90
2017-07-03T07:04:48.652Z,6.60
2017-07-03T07:07:16.180Z,6.27
2017-07-03T07:09:43.745Z,6.50
2017-07-03T07:12:11.272Z,6.20
2017-07-03T07:14:39.558Z,7.13
2017-07-03T07:17:07.136Z,6.73
2017-07-03T07:19:34.677Z,7.37
2017-07-03T07:22:02.227Z,6.20
2017-07-03T07:24:30.549Z,6.60
2017-07-03T07:26:58.154Z,6.83
2017-07-03T07:29:26.439Z,6.43
2017-07-03T07:31:54.002Z,6.20
2017-07-03T07:34:21.519Z,6.73
2017-07-03T07:36:49.038Z,6.30
2017-07-03T07:39:16.592Z,6.10
2017-07-03T07:41:44.112Z,6.53
2017-07-03T07:44:11.747Z,6.53
2017-07-03T07:46:39.304Z,6.20
2017-07-03T07:49:06.813Z,6.97
2017-07-03T07:51:34.360Z,6.17
2017-07-03T07:54:01.907Z,6.43
2017-07-03T07:56:29.484Z,6.70
2017-07-03T07:58:56.995Z,7.00
2017-07-03T08:01:24.500Z,6.83
2017-07-03T08:03:52.060Z,6.03
2017-07-03T08:06:19.604Z,6.17
2017-07-03T08:08:47.935Z,6.17
2017-07-03T08:11:15.455Z,6.53
2017-07-03T08:13:42.981Z,5.90
2017-07-03T08:16:11.315Z,6.70
2017-07-03T08:18:38.849Z,5.90
2017-07-03T08:21:06.373Z,6.00
2017-07-03T08:23:33.938Z,5.60
2017-07-03T08:26:01.460Z,6.30
2017-07-03T08:28:28.985Z,5.50
2017-07-03T08:30:56.550Z,5.80
2017-07-03T08:33:24.071Z,4.70
2017-07-03T08:35:52.401Z,4.97
2017-07-03T08:38:19.915Z,5.20
2017-07-03T08:40:47.443Z,5.10
2017-07-03T08:43:15.001Z,5.07
2017-07-03T08:45:42.555Z,5.60
2017-07-03T08:48:10.081Z,5.83
2017-07-03T08:50:37.659Z,5.30
2017-07-03T08:53:05.190Z,5.73
2017-07-03T08:55:32.704Z,4.40
2017-07-03T08:58:01.019Z,6.43
2017-07-03T09:00:28.575Z,5.30
2017-07-03T09:02:56.085Z,5.93
2017-07-03T09:05:24.387Z,5.57
2017-07-03T09:07:51.949Z,5.90
2017-07-03T09:10:19.476Z,5.63
2017-07-03T09:12:47.001Z,6.17
2017-07-03T09:15:14.555Z,6.20
2017-07-03T09:17:42.124Z,5.40
2017-07-03T09:20:09.650Z,4.87
2017-07-03T09:22:37.169Z,5.10
2017-07-03T09:25:04.747Z,4.63
2017-07-03T09:27:32.262Z,4.33
2017-07-03T09:29:59.768Z,4.00
2017-07-03T09:32:27.327Z,3.43
2017-07-03T09:34:54.855Z,3.97
2017-07-03T09:37:23.128Z,4.63
2017-07-03T09:39:51.469Z,4.80
2017-07-03T09:42:18.975Z,4.10
2017-07-03T09:44:46.488Z,3.83
2017-07-03T09:47:14.041Z,3.60
2017-07-03T09:49:41.602Z,4.20
2017-07-03T09:52:09.111Z,3.13
2017-07-03T09:54:36.638Z,2.90
2017-07-03T09:57:04.206Z,3.30
2017-07-03T09:59:32.485Z,3.13
2017-07-03T10:02:00.003Z,3.47
2017-07-03T10:04:27.568Z,2.60
2017-07-03T10:06:55.092Z,3.10
2017-07-03T10:09:22.617Z,3.10
2017-07-03T10:11:50.176Z,5.20
2017-07-03T10:14:17.689Z,3.23
2017-07-03T10:16:45.206Z,2.80
2017-07-03T10:19:12.764Z,3.00
2017-07-03T10:21:40.296Z,2.70
2017-07-03T10:24:07.820Z,3.23
2017-07-03T10:26:35.405Z,2.73
2017-07-03T10:29:02.934Z,2.60
2017-07-03T10:31:30.458Z,2.57
2017-07-03T10:33:58.023Z,3.00
2017-07-03T10:36:25.560Z,2.80
2017-07-03T10:38:53.087Z,3.07
2017-07-03T10:41:20.649Z,2.43
2017-07-03T10:43:48.177Z,2.70
2017-07-03T10:46:15.721Z,2.47
2017-07-03T10:48:43.292Z,2.90
2017-07-03T10:51:10.816Z,2.50
2017-07-03T10:53:38.352Z,2.93
2017-07-03T10:56:05.928Z,2.70
2017-07-03T10:58:33.447Z,2.30
2017-07-03T11:01:00.988Z,2.20
2017-07-03T11:03:28.563Z,2.50
2017-07-03T11:05:56.108Z,1.90
2017-07-03T11:08:23.656Z,2.60
2017-07-03T11:10:51.185Z,2.27
2017-07-03T11:13:19.049Z,1.87
2017-07-03T11:15:46.602Z,2.00
2017-07-03T11:18:14.132Z,1.90
2017-07-03T11:20:42.477Z,2.27
2017-07-03T11:23:10.025Z,2.13
2017-07-03T11:25:37.576Z,2.00
2017-07-03T11:28:05.108Z,2.20
2017-07-03T11:30:32.675Z,2.00
2017-07-03T11:33:00.225Z,2.20
2017-07-03T11:35:27.770Z,1.90
2017-07-03T11:37:55.347Z,2.07
2017-07-03T11:40:22.876Z,1.90
2017-07-03T11:42:51.175Z,2.33
2017-07-03T11:45:18.757Z,1.60
2017-07-03T11:47:46.279Z,2.37
2017-07-03T11:50:14.555Z,1.97
2017-07-03T11:52:42.909Z,2.17
2017-07-03T11:55:11.219Z,2.50
2017-07-03T11:57:38.744Z,2.23
2017-07-03T12:00:06.305Z,2.30
2017-07-03T12:02:34.609Z,1.80
2017-07-03T12:05:02.168Z,2.47
2017-07-03T12:07:29.872Z,2.40
2017-07-03T12:09:57.429Z,2.20
2017-07-03T12:12:24.957Z,2.50
2017-07-03T12:14:52.550Z,2.30
2017-07-03T12:17:20.078Z,2.47
2017-07-03T12:19:47.601Z,2.20
2017-07-03T12:22:15.937Z,2.20
2017-07-03T12:24:43.489Z,2.40
2017-07-03T12:27:11.012Z,2.40
2017-07-03T12:29:38.582Z,1.80
2017-07-03T12:32:06.125Z,2.37
2017-07-03T12:34:33.870Z,2.20
2017-07-03T12:37:01.674Z,2.40
2017-07-03T12:39:29.189Z,2.27
2017-07-03T12:41:56.705Z,2.37
2017-07-03T12:44:24.268Z,2.37
2017-07-03T12:46:51.815Z,2.10
2017-07-03T12:49:19.373Z,2.07
2017-07-03T12:51:46.892Z,2.13
2017-07-03T12:54:15.389Z,2.40
2017-07-03T12:56:42.913Z,2.10
2017-07-03T12:59:11.212Z,2.10
2017-07-03T13:01:38.770Z,2.10
2017-07-03T13:04:06.358Z,2.13
2017-07-03T13:06:33.878Z,2.00
2017-07-03T13:09:01.404Z,2.10
2017-07-03T13:11:28.975Z,2.10
2017-07-03T13:13:57.308Z,1.80
2017-07-03T13:16:24.840Z,2.00
2017-07-03T13:18:52.402Z,1.70
2017-07-03T13:21:19.917Z,1.80
2017-07-03T13:23:48.213Z,1.90
2017-07-03T13:26:15.758Z,1.63
2017-07-03T13:28:44.048Z,1.80
2017-07-03T13:31:11.608Z,1.57
2017-07-03T13:33:39.137Z,1.60
2017-07-03T13:36:07.419Z,1.37
2017-07-03T13:38:35.761Z,1.10
2017-07-03T13:41:03.304Z,1.53
2017-07-03T13:43:30.827Z,1.00
2017-07-03T13:45:58.383Z,1.40
2017-07-03T13:48:26.267Z,1.60
2017-07-03T13:50:53.784Z,1.40
2017-07-03T13:53:21.356Z,1.47
2017-07-03T13:55:48.932Z,1.67
2017-07-03T13:58:16.459Z,1.40
2017-07-03T14:00:43.988Z,1.90
2017-07-03T14:03:11.545Z,1.67
2017-07-03T14:05:39.105Z,1.37
2017-07-03T14:08:06.650Z,1.20
2017-07-03T14:10:34.215Z,1.77
2017-07-03T14:13:01.742Z,1.60
2017-07-03T14:15:29.261Z,1.30
2017-07-03T14:17:56.936Z,1.20
2017-07-03T14:20:25.229Z,1.10
2017-07-03T14:22:52.752Z,1.27
2017-07-03T14:25:20.330Z,1.60
2017-07-03T14:27:47.861Z,1.33
2017-07-03T14:30:15.384Z,1.30
2017-07-03T14:32:42.951Z,2.20
2017-07-03T14:35:10.481Z,3.07
2017-07-03T14:37:38.048Z,1.43
2017-07-03T14:40:05.568Z,1.17
2017-07-03T14:42:33.949Z,1.20
2017-07-03T14:45:02.314Z,1.20
2017-07-03T14:47:30.622Z,1.30
2017-07-03T14:49:58.149Z,1.40
2017-07-03T14:52:26.476Z,1.10
2017-07-03T14:54:53.997Z,1.60
2017-07-03T14:57:22.301Z,1.47
2017-07-03T14:59:49.874Z,1.20
2017-07-03T15:02:17.396Z,1.30
2017-07-03T15:04:44.932Z,0.93
2017-07-03T15:07:13.300Z,1.20
2017-07-03T15:09:41.594Z,1.00
2017-07-03T15:12:09.891Z,1.20
2017-07-03T15:14:37.457Z,1.10
2017-07-03T15:17:05.005Z,1.10
2017-07-03T15:19:32.537Z,1.20
2017-07-03T15:22:00.884Z,1.00
2017-07-03T15:24:28.404Z,1.40
2017-07-03T15:26:55.939Z,1.23
2017-07-03T15:29:24.269Z,1.20
2017-07-03T15:31:51.812Z,2.27
2017-07-03T15:34:19.357Z,0.87
2017-07-03T15:36:46.925Z,1.30
2017-07-03T15:39:14.469Z,1.00
2017-07-03T15:41:41.995Z,1.07
2017-07-03T15:44:10.328Z,0.97
2017-07-03T15:46:37.870Z,1.00
2017-07-03T15:49:05.392Z,1.30
2017-07-03T15:51:33.719Z,1.00
2017-07-03T15:54:01.232Z,1.10
2017-07-03T15:56:28.750Z,1.00
2017-07-03T15:58:56.321Z,1.53
2017-07-03T16:01:23.865Z,0.90
2017-07-03T16:03:51.394Z,1.30
2017-07-03T16:06:18.950Z,1.03
2017-07-03T16:08:46.513Z,1.13
2017-07-03T16:11:14.030Z,1.20
2017-07-03T16:13:41.619Z,1.10
2017-07-03T16:16:09.152Z,1.00
2017-07-03T16:18:36.688Z,1.03
2017-07-03T16:21:04.260Z,1.47
2017-07-03T16:23:32.548Z,2.20
2017-07-03T16:26:00.086Z,1.50
2017-07-03T16:28:27.669Z,1.10
2017-07-03T16:30:55.223Z,1.07
2017-07-03T16:33:22.751Z,1.23
2017-07-03T16:35:50.942Z,1.40
2017-07-03T16:38:18.556Z,0.97
2017-07-03T16:40:46.079Z,1.20
2017-07-03T16:43:13.690Z,1.30
2017-07-03T16:45:41.208Z,1.00
2017-07-03T16:48:08.744Z,1.40
2017-07-03T16:50:36.516Z,1.20
2017-07-03T16:53:04.052Z,1.40
2017-07-03T16:55:31.706Z,1.00
2017-07-03T16:57:59.292Z,1.50
2017-07-03T17:00:26.886Z,1.13
2017-07-03T17:02:54.732Z,0.80
2017-07-03T17:05:22.265Z,1.27
2017-07-03T17:07:49.776Z,1.10
2017-07-03T17:10:17.339Z,1.10
2017-07-03T17:12:44.884Z,1.10
2017-07-03T17:15:12.470Z,1.10
2017-07-03T17:17:40.874Z,0.93
2017-07-03T17:20:09.395Z,1.30
2017-07-03T17:22:37.801Z,1.00
2017-07-03T17:25:05.379Z,1.20
2017-07-03T17:27:33.700Z,1.40
2017-07-03T17:30:01.348Z,1.80
2017-07-03T17:32:28.907Z,2.00
2017-07-03T17:34:56.476Z,1.73
2017-07-03T17:37:24.004Z,1.70
2017-07-03T17:39:51.528Z,1.50
2017-07-03T17:42:19.916Z,2.03
2017-07-03T17:44:47.522Z,1.70
2017-07-03T17:47:15.052Z,1.50
2017-07-03T17:49:42.664Z,1.30
2017-07-03T17:52:10.214Z,1.33
2017-07-03T17:54:37.833Z,1.20
2017-07-03T17:57:05.506Z,1.47
2017-07-03T17:59:33.209Z,1.17
2017-07-03T18:02:01.633Z,1.10
2017-07-03T18:04:29.278Z,1.20
2017-07-03T18:06:56.931Z,1.40
2017-07-03T18:09:24.524Z,1.20
2017-07-03T18:11:52.198Z,1.57
2017-07-03T18:14:19.836Z,1.13
2017-07-03T18:16:47.430Z,1.30
2017-07-03T18:19:15.029Z,1.10
2017-07-03T18:21:42.603Z,1.20
2017-07-03T18:24:10.134Z,1.00
2017-07-03T18:26:37.693Z,1.20
2017-07-03T18:29:06.038Z,1.37
2017-07-03T18:31:33.577Z,1.20
2017-07-03T18:34:01.123Z,1.33
2017-07-03T18:36:28.691Z,1.30
2017-07-03T18:38:56.213Z,1.40
2017-07-03T18:41:24.536Z,1.60
2017-07-03T18:43:52.108Z,1.57
2017-07-03T18:46:19.636Z,1.53
2017-07-03T18:48:47.183Z,1.20
2017-07-03T18:51:14.771Z,2.00
2017-07-03T18:53:42.306Z,1.40
2017-07-03T18:56:09.833Z,1.40
2017-07-03T18:58:37.431Z,1.57
2017-07-03T19:01:04.964Z,1.57
2017-07-03T19:03:32.508Z,1.33
2017-07-03T19:06:00.840Z,1.63
2017-07-03T19:08:28.381Z,1.50
2017-07-03T19:10:55.966Z,1.60
2017-07-03T19:13:23.555Z,1.60
2017-07-03T19:15:51.855Z,1.40
2017-07-03T19:18:19.434Z,1.23
2017-07-03T19:20:47.094Z,1.43
2017-07-03T19:23:14.661Z,1.60
2017-07-03T19:25:42.233Z,1.70
2017-07-03T19:28:09.861Z,1.33
2017-07-03T19:30:37.400Z,1.57
2017-07-03T19:33:05.003Z,2.00
2017-07-03T19:35:32.621Z,1.50
2017-07-03T19:38:00.200Z,1.80
2017-07-03T19:40:27.848Z,1.60
2017-07-03T19:42:55.433Z,1.90
2017-07-03T19:45:23.099Z,1.90
2017-07-03T19:47:50.681Z,1.50
2017-07-03T19:50:19.017Z,1.90
2017-07-03T19:52:46.556Z,2.20
2017-07-03T19:55:14.148Z,2.00
2017-07-03T19:57:41.669Z,1.73
2017-07-03T20:00:09.210Z,1.80
2017-07-03T20:02:36.824Z,1.73
2017-07-03T20:05:04.373Z,1.60
2017-07-03T20:07:31.955Z,1.90
2017-07-03T20:09:59.542Z,1.87
2017-07-03T20:12:27.842Z,1.60
2017-07-03T20:14:55.400Z,2.07
2017-07-03T20:17:23.036Z,2.20
2017-07-03T20:19:50.573Z,1.90
2017-07-03T20:22:18.910Z,1.60
2017-07-03T20:24:46.546Z,2.40
2017-07-03T20:27:14.075Z,1.90
2017-07-03T20:29:41.636Z,1.90
2017-07-03T20:32:10.061Z,2.10
2017-07-03T20:34:37.671Z,1.50
2017-07-03T20:37:05.961Z,1.60
2017-07-03T20:39:33.505Z,2.00
2017-07-03T20:42:01.882Z,1.80
2017-07-03T20:44:30.201Z,1.47
2017-07-03T20:46:57.784Z,1.80
2017-07-03T20:49:26.171Z,1.60
2017-07-03T20:51:53.722Z,2.00
2017-07-03T20:54:21.273Z,2.00
2017-07-03T20:56:48.855Z,2.30
2017-07-03T20:59:16.400Z,1.80
2017-07-03T21:01:43.934Z,1.57
2017-07-03T21:04:11.529Z,1.67
2017-07-03T21:06:39.053Z,1.53
2017-07-03T21:09:06.601Z,1.60
2017-07-03T21:11:34.240Z,1.90
2017-07-03T21:14:01.774Z,1.40
2017-07-03T21:16:30.125Z,1.60
2017-07-03T21:18:57.711Z,2.00
2017-07-03T21:21:26.189Z,1.50
2017-07-03T21:23:53.777Z,1.70
2017-07-03T21:26:21.401Z,2.07
2017-07-03T21:28:49.702Z,1.67
2017-07-03T21:31:17.232Z,1.83
2017-07-03T21:33:44.794Z,1.97
2017-07-03T21:36:12.316Z,1.93
2017-07-03T21:38:39.841Z,2.10
2017-07-03T21:41:07.409Z,1.80
2017-07-03T21:43:34.939Z,2.00
2017-07-03T21:46:03.219Z,2.13
2017-07-03T21:48:30.785Z,1.80
2017-07-03T21:50:58.305Z,1.93
2017-07-03T21:53:25.837Z,1.97
2017-07-03T21:55:53.522Z,2.10
2017-07-03T21:58:21.093Z,2.17
2017-07-03T22:00:48.677Z,1.87
2017-07-03T22:03:18.156Z,2.30
2017-07-03T22:05:47.624Z,2.00
2017-07-03T22:08:15.222Z,2.10
2017-07-03T22:10:42.767Z,1.83
2017-07-03T22:13:10.369Z,1.70
2017-07-03T22:15:37.900Z,2.20
2017-07-03T22:18:06.186Z,2.20
2017-07-03T22:20:33.748Z,1.80
2017-07-03T22:23:01.277Z,1.90
2017-07-03T22:25:28.798Z,2.00
2017-07-03T22:27:56.363Z,2.50
2017-07-03T22:30:23.892Z,2.37
2017-07-03T22:32:51.417Z,2.23
2017-07-03T22:35:19.765Z,2.10
2017-07-03T22:37:47.311Z,1.93
2017-07-03T22:40:14.823Z,2.10
2017-07-03T22:42:42.383Z,2.00
2017-07-03T22:45:09.908Z,2.33
2017-07-03T22:47:37.428Z,1.90
2017-07-03T22:50:04.996Z,2.03
2017-07-03T22:52:32.520Z,2.50
2017-07-03T22:55:00.088Z,1.97
2017-07-03T22:57:27.672Z,2.10
2017-07-03T22:59:55.197Z,2.23
2017-07-03T23:02:22.732Z,2.40
2017-07-03T23:04:51.048Z,2.30
2017-07-03T23:07:18.573Z,2.00
2017-07-03T23:09:46.904Z,2.27
2017-07-03T23:12:14.437Z,2.27
2017-07-03T23:14:42.012Z,1.90
2017-07-03T23:17:09.588Z,2.00
2017-07-03T23:19:37.125Z,1.90
2017-07-03T23:22:04.660Z,2.30
2017-07-03T23:24:32.234Z,2.27
2017-07-03T23:26:59.749Z,2.53
2017-07-03T23:29:27.281Z,2.07
2017-07-03T23:31:55.624Z,2.40
2017-07-03T23:34:23.160Z,2.10
2017-07-03T23:36:50.685Z,2.23
2017-07-03T23:39:18.264Z,2.30
2017-07-03T23:41:45.801Z,1.77
2017-07-03T23:44:14.096Z,2.33
2017-07-03T23:46:41.652Z,2.57
2017-07-03T23:49:09.168Z,2.10
2017-07-03T23:51:36.728Z,2.00
2017-07-03T23:54:04.258Z,1.83
2017-07-03T23:56:31.792Z,2.30
2017-07-03T23:58:59.373Z,2.33
